Temp: 1.6°C   Baro: 1011.3mb
  Wind: 0.0mph   Dir: N (352°)
  Rain: 0.0mm (0.0mm/hr)
  Solar: 0W/m2  Hum: 82%

Historic data

Bath Spa Weather Station Historical Data
Daily Summary for October 14, 2021 Units:  Metric    English   Both
Daily Weekly Monthly Yearly Custom
  High: Low: Average:
Temperature: 17.5 °C 10.3 °C 13.4 °C
Dew Point: 12.5 °C 9.6 °C 11.2 °C
Humidity: 94% 68.2% 84%
Wind Speed: 15.8km/h 0km/h 4.2km/h
Wind Gust: 29km/h - -
Wind- - WNW
Pressure: 1028 hPa 1019.9 hPa -
Precipitation: 0 mm    
Historical Graphs
 
 
Tabular Data for October 14, 2021
Time Temperature Dew Point Pressure Wind Wind Speed Wind Gust Humidity Rainfall Rate (Hourly) solar
00:04 13.3 °C 12.2 °C 1028 hPa WNW 0.3 km/h 1.6 km/h 90% 0 mm 0 W/m2
00:09 13.2 °C 12.1 °C 1028 hPa WNW 0.3 km/h 1.6 km/h 90% 0 mm 0 W/m2
00:14 13.1 °C 11.9 °C 1028 hPa WNW 2.1 km/h 6.4 km/h 90% 0 mm 0 W/m2
00:19 12.9 °C 11.8 °C 1028 hPa WNW 0.6 km/h 6.4 km/h 90% 0 mm 0 W/m2
00:24 12.9 °C 11.8 °C 1028 hPa Calm     90% 0 mm 0 W/m2
00:29 12.8 °C 11.7 °C 1028 hPa WNW 1.6 km/h 6.4 km/h 90% 0 mm 0 W/m2
00:34 12.7 °C 11.6 °C 1028 hPa Calm   1.6 km/h 90% 0 mm 0 W/m2
00:39 12.6 °C 11.4 °C 1028 hPa Calm     90% 0 mm 0 W/m2
00:44 12.4 °C 11.3 °C 1028 hPa Calm     90% 0 mm 0 W/m2
00:49 12.3 °C 11.2 °C 1028 hPa Calm     90% 0 mm 0 W/m2
00:54 12.2 °C 11.2 °C 1027.7 hPa Calm   3.2 km/h 90% 0 mm 0 W/m2
00:59 12.1 °C 11 °C 1027.7 hPa Calm     90% 0 mm 0 W/m2
01:04 11.9 °C 10.8 °C 1027.7 hPa WNW 2.1 km/h 4.8 km/h 90% 0 mm 0 W/m2
01:09 11.8 °C 10.7 °C 1027.7 hPa Calm   4.8 km/h 90% 0 mm 0 W/m2
01:14 11.7 °C 10.6 °C 1027.7 hPa Calm     90% 0 mm 0 W/m2
01:19 11.4 °C 10.4 °C 1027.7 hPa Calm     90.2% 0 mm 0 W/m2
01:24 11.3 °C 10.4 °C 1027.7 hPa Calm     91% 0 mm 0 W/m2
01:29 11.3 °C 10.3 °C 1027.7 hPa Calm   1.6 km/h 91% 0 mm 0 W/m2
01:34 11.2 °C 10.2 °C 1027.7 hPa WNW 0.3 km/h 3.2 km/h 91% 0 mm 0 W/m2
01:39 10.9 °C 10.1 °C 1027.7 hPa Calm     91% 0 mm 0 W/m2
01:44 10.9 °C 10 °C 1027.7 hPa Calm     91% 0 mm 0 W/m2
01:49 10.8 °C 9.9 °C 1027.7 hPa Calm     91% 0 mm 0 W/m2
01:54 10.7 °C 9.8 °C 1027.7 hPa Calm     91% 0 mm 0 W/m2
01:59 10.7 °C 9.7 °C 1027.7 hPa Calm     91% 0 mm 0 W/m2
02:04 10.6 °C 9.7 °C 1027.7 hPa Calm     91% 0 mm 0 W/m2
02:09 10.6 °C 9.7 °C 1027.7 hPa Calm     91% 0 mm 0 W/m2
02:14 10.6 °C 9.7 °C 1027.7 hPa Calm     91% 0 mm 0 W/m2
02:19 10.4 °C 9.6 °C 1027.7 hPa Calm     91% 0 mm 0 W/m2
02:24 10.4 °C 9.6 °C 1027.3 hPa Calm     91.4% 0 mm 0 W/m2
02:29 10.4 °C 9.7 °C 1027.3 hPa Calm     92% 0 mm 0 W/m2
02:34 10.4 °C 9.7 °C 1027.3 hPa Calm     92% 0 mm 0 W/m2
02:39 10.4 °C 9.7 °C 1027.3 hPa Calm     92% 0 mm 0 W/m2
02:44 10.4 °C 9.7 °C 1027.3 hPa Calm     92% 0 mm 0 W/m2
02:49 10.4 °C 9.7 °C 1027.3 hPa Calm     92% 0 mm 0 W/m2
02:54 10.3 °C 9.6 °C 1027.3 hPa Calm     92% 0 mm 0 W/m2
02:59 10.3 °C 9.6 °C 1027.3 hPa WNW 0.6 km/h 3.2 km/h 92% 0 mm 0 W/m2
03:04 10.4 °C 9.7 °C 1027.3 hPa Calm     92% 0 mm 0 W/m2
03:09 10.4 °C 9.7 °C 1027.3 hPa Calm     92% 0 mm 0 W/m2
03:14 10.6 °C 9.8 °C 1027.3 hPa Calm     92% 0 mm 0 W/m2
03:19 10.6 °C 9.8 °C 1027.3 hPa Calm     92% 0 mm 0 W/m2
03:24 10.7 °C 9.8 °C 1027.3 hPa Calm     92% 0 mm 0 W/m2
03:29 10.7 °C 9.9 °C 1027 hPa Calm     92% 0 mm 0 W/m2
03:34 10.8 °C 10.1 °C 1027 hPa Calm     92.4% 0 mm 0 W/m2
03:39 10.8 °C 10.2 °C 1027 hPa Calm     93% 0 mm 0 W/m2
03:44 10.9 °C 10.3 °C 1027 hPa Calm     93% 0 mm 0 W/m2
03:49 11 °C 10.4 °C 1027 hPa Calm     93% 0 mm 0 W/m2
03:54 11.1 °C 10.5 °C 1027 hPa Calm     93% 0 mm 0 W/m2
03:59 11.1 °C 10.5 °C 1027 hPa Calm     93% 0 mm 0 W/m2
04:04 11.1 °C 10.5 °C 1027 hPa Calm     93% 0 mm 0 W/m2
04:09 11.1 °C 10.5 °C 1026.6 hPa Calm     93% 0 mm 0 W/m2
04:14 11.1 °C 10.5 °C 1026.6 hPa Calm     93% 0 mm 0 W/m2
04:19 11.1 °C 10.5 °C 1026.6 hPa Calm     93% 0 mm 0 W/m2
04:24 11.1 °C 10.5 °C 1026.6 hPa Calm     93% 0 mm 0 W/m2
04:29 11.2 °C 10.6 °C 1026.6 hPa Calm   1.6 km/h 93% 0 mm 0 W/m2
04:34 11.2 °C 10.6 °C 1026.6 hPa Calm     93% 0 mm 0 W/m2
04:39 11.1 °C 10.5 °C 1027 hPa Calm     93% 0 mm 0 W/m2
04:44 11.2 °C 10.6 °C 1027 hPa Calm     93% 0 mm 0 W/m2
04:49 11.2 °C 10.6 °C 1027 hPa Calm     93% 0 mm 0 W/m2
04:54 11.3 °C 10.7 °C 1026.6 hPa Calm     93% 0 mm 0 W/m2
04:59 11.3 °C 10.8 °C 1026.6 hPa Calm     93% 0 mm 0 W/m2
05:04 11.4 °C 10.8 °C 1026.6 hPa Calm     93% 0 mm 0 W/m2
05:09 11.4 °C 10.8 °C 1026.6 hPa Calm     93% 0 mm 0 W/m2
05:14 11.4 °C 10.8 °C 1026.6 hPa Calm     93% 0 mm 0 W/m2
05:19 11.5 °C 10.9 °C 1026.6 hPa Calm     93% 0 mm 0 W/m2
05:23 11.5 °C 10.9 °C 1026.6 hPa Calm     93% 0 mm 0 W/m2
05:29 11.5 °C 10.9 °C 1026.6 hPa Calm     93% 0 mm 0 W/m2
05:34 11.4 °C 10.8 °C 1026.6 hPa Calm     93% 0 mm 0 W/m2
05:39 11.4 °C 10.8 °C 1026.6 hPa Calm     93% 0 mm 0 W/m2
05:44 11.3 °C 10.7 °C 1026.6 hPa Calm     93% 0 mm 0 W/m2
05:49 11.3 °C 10.7 °C 1026.6 hPa Calm     93% 0 mm 0 W/m2
05:54 11.2 °C 10.7 °C 1026.6 hPa Calm     93% 0 mm 0 W/m2
05:59 11.1 °C 10.5 °C 1026.6 hPa Calm     93% 0 mm 0 W/m2
06:04 11.1 °C 10.5 °C 1026.6 hPa Calm     93% 0 mm 0 W/m2
06:09 11.1 °C 10.5 °C 1026.6 hPa Calm     93% 0 mm 0 W/m2
06:14 11.1 °C 10.5 °C 1026.6 hPa WNW 0.3 km/h 3.2 km/h 93% 0 mm 0 W/m2
06:19 11.1 °C 10.5 °C 1026.6 hPa WNW 0.3 km/h 3.2 km/h 93% 0 mm 0 W/m2
06:24 11.2 °C 10.6 °C 1026.6 hPa WNW 0.3 km/h 3.2 km/h 93% 0 mm 0 W/m2
06:29 11.2 °C 10.6 °C 1026.6 hPa Calm     93% 0 mm 0 W/m2
06:34 11.2 °C 10.6 °C 1026.6 hPa Calm     93% 0 mm 0 W/m2
06:39 11.2 °C 10.6 °C 1026.6 hPa Calm   1.6 km/h 93% 0 mm 0 W/m2
06:44 11.3 °C 10.7 °C 1026.6 hPa Calm   1.6 km/h 93% 0 mm 0 W/m2
06:49 11.3 °C 10.7 °C 1026.6 hPa WNW 0.3 km/h 1.6 km/h 93% 0 mm 0 W/m2
06:54 11.3 °C 10.7 °C 1026.6 hPa Calm     93% 0 mm 0 W/m2
06:59 11.3 °C 10.7 °C 1026.6 hPa Calm   1.6 km/h 93% 0 mm 0 W/m2
07:04 11.3 °C 10.7 °C 1026.6 hPa Calm     93% 0 mm 0 W/m2
07:09 11.2 °C 10.7 °C 1026.6 hPa Calm     93% 0 mm 0 W/m2
07:14 11.2 °C 10.6 °C 1026.6 hPa Calm     93% 0 mm 0 W/m2
07:19 11.2 °C 10.8 °C 1026.6 hPa Calm     94% 0 mm 0 W/m2
07:24 11.2 °C 10.7 °C 1026.6 hPa Calm     94% 0 mm 0 W/m2
07:29 11.1 °C 10.7 °C 1026.3 hPa WNW 0.3 km/h 1.6 km/h 94% 0 mm 0 W/m2
07:34 10.9 °C 10.5 °C 1026.3 hPa WNW 0.8 km/h 3.2 km/h 93.6% 0 mm 5 W/m2
07:39 10.9 °C 10.3 °C 1026.3 hPa Calm   3.2 km/h 93% 0 mm 7 W/m2
07:44 10.8 °C 10.3 °C 1026.3 hPa WNW 2.7 km/h 6.4 km/h 93% 0 mm 12 W/m2
07:49 10.7 °C 10.2 °C 1026.3 hPa WNW 1.9 km/h 6.4 km/h 93% 0 mm 18 W/m2
07:54 10.7 °C 10.1 °C 1026.3 hPa WNW 2.1 km/h 4.8 km/h 93% 0 mm 25 W/m2
07:59 10.7 °C 10.1 °C 1026.3 hPa Calm   1.6 km/h 93% 0 mm 28 W/m2
08:04 11.1 °C 10.4 °C 1026.3 hPa Calm     93% 0 mm 35 W/m2
08:09 11.8 °C 11.3 °C 1026.3 hPa Calm     93.2% 0 mm 40 W/m2
08:14 11.9 °C 11.3 °C 1026.3 hPa Calm     93% 0 mm 39 W/m2
08:19 12 °C 11.3 °C 1026.3 hPa Calm     92.4% 0 mm 40 W/m2
08:24 11.7 °C 10.8 °C 1026.3 hPa WNW 0.6 km/h 3.2 km/h 90.8% 0 mm 49 W/m2
08:29 11.7 °C 10.7 °C 1026.3 hPa WNW 1.3 km/h 4.8 km/h 90.4% 0 mm 46 W/m2
08:34 11.7 °C 10.4 °C 1026.3 hPa WNW 0.6 km/h 4.8 km/h 89.6% 0 mm 32 W/m2
08:39 11.7 °C 10.4 °C 1026.3 hPa WNW 0.3 km/h 3.2 km/h 89% 0 mm 30 W/m2
08:44 11.6 °C 10.2 °C 1026.3 hPa WNW 0.3 km/h 4.8 km/h 88.8% 0 mm 37 W/m2
08:49 11.5 °C 10.1 °C 1026.3 hPa WNW 0.6 km/h 4.8 km/h 88.2% 0 mm 35 W/m2
08:54 11.6 °C 10.2 °C 1026.3 hPa WNW 0.8 km/h 3.2 km/h 88% 0 mm 40 W/m2
08:59 11.6 °C 10.2 °C 1026.3 hPa WNW 3.4 km/h 8 km/h 88% 0 mm 49 W/m2
09:04 11.7 °C 10.2 °C 1026 hPa WNW 1 km/h 6.4 km/h 88% 0 mm 58 W/m2
09:09 11.7 °C 10.1 °C 1026.3 hPa WNW 4.3 km/h 9.7 km/h 87% 0 mm 74 W/m2
09:14 11.7 °C 10.2 °C 1026.3 hPa WNW 2.6 km/h 8 km/h 87% 0 mm 88 W/m2
09:19 11.8 °C 10.2 °C 1026.3 hPa WNW 3.5 km/h 8 km/h 87% 0 mm 98 W/m2
09:24 11.9 °C 10.2 °C 1026.3 hPa WNW 2.3 km/h 6.4 km/h 86.4% 0 mm 118 W/m2
09:29 12.2 °C 10.3 °C 1026.3 hPa WNW 1.6 km/h 4.8 km/h 86% 0 mm 134 W/m2
09:34 12.3 °C 10.6 °C 1026.3 hPa WNW 1.6 km/h 4.8 km/h 86% 0 mm 155 W/m2
09:39 12.5 °C 10.7 °C 1026.3 hPa WNW 1 km/h 3.2 km/h 86% 0 mm 176 W/m2
09:44 12.8 °C 10.8 °C 1026.3 hPa Calm   3.2 km/h 85.4% 0 mm 193 W/m2
09:49 13.1 °C 11 °C 1026 hPa WNW 1.6 km/h 6.4 km/h 84.8% 0 mm 211 W/m2
09:54 13.2 °C 11 °C 1026 hPa WNW 5.1 km/h 11.3 km/h 84% 0 mm 230 W/m2
09:59 13.5 °C 11.3 °C 1026 hPa WNW 2.3 km/h 11.3 km/h 84% 0 mm 255 W/m2
10:04 13.7 °C 11.3 °C 1026 hPa WNW 7.2 km/h 11.3 km/h 82.2% 0 mm 288 W/m2
10:09 13.8 °C 11.3 °C 1026 hPa WNW 4.7 km/h 11.3 km/h 82% 0 mm 313 W/m2
10:14 14.1 °C 11.5 °C 1026 hPa WNW 6.4 km/h 12.9 km/h 81.8% 0 mm 327 W/m2
10:19 14.1 °C 11.4 °C 1026 hPa WNW 6.6 km/h 12.9 km/h 81% 0 mm 343 W/m2
10:24 14.3 °C 11.6 °C 1026 hPa WNW 7.9 km/h 16.1 km/h 81% 0 mm 350 W/m2
10:29 14.4 °C 11.7 °C 1026 hPa WNW 6.4 km/h 16.1 km/h 80.8% 0 mm 357 W/m2
10:34 14.7 °C 11.8 °C 1026 hPa WNW 6 km/h 12.9 km/h 80.4% 0 mm 357 W/m2
10:39 14.8 °C 11.8 °C 1025.6 hPa WNW 6.4 km/h 16.1 km/h 79.6% 0 mm 350 W/m2
10:44 14.6 °C 11.7 °C 1025.6 hPa WNW 8.9 km/h 16.1 km/h 79.8% 0 mm 327 W/m2
10:49 14.7 °C 11.8 °C 1025.6 hPa WNW 10 km/h 12.9 km/h 80% 0 mm 306 W/m2
10:54 14.8 °C 11.8 °C 1025.6 hPa WNW 8.7 km/h 12.9 km/h 79.8% 0 mm 299 W/m2
10:59 14.7 °C 11.8 °C 1025.6 hPa WNW 8.2 km/h 12.9 km/h 79.6% 0 mm 213 W/m2
11:04 14.7 °C 11.6 °C 1025.6 hPa West 9.5 km/h 17.7 km/h 79.2% 0 mm 220 W/m2
11:09 14.8 °C 11.7 °C 1025.6 hPa West 7.1 km/h 14.5 km/h 78.4% 0 mm 367 W/m2
11:14 15.1 °C 11.7 °C 1025.6 hPa West 6.4 km/h 17.7 km/h 77.8% 0 mm 404 W/m2
11:19 15.2 °C 11.7 °C 1025.6 hPa West 8.5 km/h 19.3 km/h 77.2% 0 mm 401 W/m2
11:24 15.4 °C 11.8 °C 1025.3 hPa West 6.4 km/h 14.5 km/h 76.4% 0 mm 406 W/m2
11:29 15.6 °C 11.7 °C 1025.3 hPa West 10.3 km/h 20.9 km/h 75.2% 0 mm 397 W/m2
11:34 15.3 °C 11.4 °C 1025.3 hPa West 10.3 km/h 17.7 km/h 75% 0 mm 348 W/m2
11:39 15.3 °C 11.4 °C 1025.3 hPa WSW 11.9 km/h 19.3 km/h 75% 0 mm 378 W/m2
11:44 15.4 °C 11.6 °C 1025.3 hPa WSW 8.4 km/h 17.7 km/h 74.8% 0 mm 406 W/m2
11:49 15.5 °C 11.5 °C 1025.3 hPa West 10 km/h 17.7 km/h 74.6% 0 mm 420 W/m2
11:54 15.6 °C 11.6 °C 1025.3 hPa WSW 14.8 km/h 24.1 km/h 74.4% 0 mm 418 W/m2
11:59 15.5 °C 11.4 °C 1024.9 hPa WSW 12.2 km/h 22.5 km/h 74% 0 mm 468 W/m2
12:04 15.7 °C 11.6 °C 1024.9 hPa West 7.6 km/h 17.7 km/h 74.2% 0 mm 494 W/m2
12:09 15.8 °C 11.8 °C 1024.9 hPa West 10 km/h 16.1 km/h 74.2% 0 mm 489 W/m2
12:14 15.9 °C 11.8 °C 1024.9 hPa West 12.1 km/h 20.9 km/h 74% 0 mm 512 W/m2
12:19 16.1 °C 11.8 °C 1024.9 hPa WSW 11.6 km/h 22.5 km/h 73.6% 0 mm 531 W/m2
12:24 15.9 °C 11.7 °C 1024.9 hPa WSW 13.8 km/h 24.1 km/h 73.6% 0 mm 529 W/m2
12:29 15.9 °C 11.6 °C 1024.9 hPa West 9.7 km/h 19.3 km/h 73.5% 0 mm 512 W/m2
12:34 16.2 °C 11.9 °C 1024.9 hPa West 10 km/h 20.9 km/h 73.6% 0 mm 534 W/m2
12:39 16.2 °C 11.8 °C 1024.9 hPa WSW 11.6 km/h 24.1 km/h 73% 0 mm 534 W/m2
12:44 16.2 °C 11.8 °C 1024.9 hPa West 10.6 km/h 19.3 km/h 73% 0 mm 550 W/m2
12:49 16.1 °C 11.7 °C 1024.6 hPa West 11.6 km/h 19.3 km/h 73% 0 mm 550 W/m2
12:54 16 °C 11.6 °C 1024.6 hPa WSW 14 km/h 19.3 km/h 73% 0 mm 541 W/m2
12:59 15.9 °C 11.6 °C 1024.6 hPa West 11.4 km/h 20.9 km/h 73.2% 0 mm 446 W/m2
13:04 16 °C 11.7 °C 1024.6 hPa West 8 km/h 17.7 km/h 73.6% 0 mm 315 W/m2
13:09 15.9 °C 11.7 °C 1024.3 hPa WSW 12.6 km/h 22.5 km/h 73.8% 0 mm 323 W/m2
13:14 15.7 °C 11.6 °C 1024.3 hPa WNW 10.3 km/h 20.9 km/h 74% 0 mm 327 W/m2
13:19 15.7 °C 11.7 °C 1024.3 hPa WNW 10 km/h 25.7 km/h 74.6% 0 mm 483 W/m2
13:24 16.2 °C 12.1 °C 1024.3 hPa WNW 9.3 km/h 29 km/h 74.4% 0 mm 631 W/m2
13:29 16.4 °C 12.2 °C 1024.3 hPa WNW 8.4 km/h 20.9 km/h 73.6% 0 mm 619 W/m2
13:34 16.6 °C 12.2 °C 1023.9 hPa West 12.1 km/h 22.5 km/h 73.4% 0 mm 566 W/m2
13:39 16.7 °C 12.3 °C 1023.9 hPa West 11.4 km/h 17.7 km/h 73.2% 0 mm 596 W/m2
13:44 16.7 °C 12.1 °C 1023.9 hPa West 10.9 km/h 22.5 km/h 72.2% 0 mm 599 W/m2
13:49 16.9 °C 12.3 °C 1023.9 hPa West 10.1 km/h 16.1 km/h 71.8% 0 mm 585 W/m2
13:54 17.2 °C 12.4 °C 1023.9 hPa WSW 13.8 km/h 20.9 km/h 70.8% 0 mm 575 W/m2
13:59 16.8 °C 12.2 °C 1023.6 hPa West 13.2 km/h 19.3 km/h 71.6% 0 mm 596 W/m2
14:03 17.2 °C 12.5 °C 1023.6 hPa WSW 14.2 km/h 22.5 km/h 71.5% 0 mm 622 W/m2
14:09 17.3 °C 12.3 °C 1023.6 hPa WSW 9 km/h 24.1 km/h 70.4% 0 mm 656 W/m2
14:14 17.1 °C 12.1 °C 1023.6 hPa WNW 12.9 km/h 22.5 km/h 70% 0 mm 663 W/m2
14:19 16.7 °C 11.7 °C 1023.6 hPa West 13.2 km/h 24.1 km/h 70% 0 mm 570 W/m2
14:24 17.2 °C 12.2 °C 1023.6 hPa West 9.7 km/h 25.7 km/h 69.8% 0 mm 603 W/m2
14:29 17.4 °C 12.1 °C 1023.6 hPa WSW 10.1 km/h 22.5 km/h 68.8% 0 mm 612 W/m2
14:34 17.5 °C 12.1 °C 1023.6 hPa West 12.4 km/h 24.1 km/h 68.2% 0 mm 603 W/m2
14:39 17.2 °C 11.8 °C 1023.6 hPa WNW 11.9 km/h 20.9 km/h 68.6% 0 mm 585 W/m2
14:44 16.9 °C 11.8 °C 1023.6 hPa WNW 10.9 km/h 24.1 km/h 69.4% 0 mm 276 W/m2
14:49 16.6 °C 11.7 °C 1023.6 hPa West 10.9 km/h 22.5 km/h 70.8% 0 mm 320 W/m2
14:54 16.6 °C 11.8 °C 1023.2 hPa WNW 9 km/h 17.7 km/h 71.4% 0 mm 519 W/m2
14:59 16.8 °C 12.1 °C 1023.2 hPa WNW 10.6 km/h 17.7 km/h 71.4% 0 mm 519 W/m2
15:04 16.7 °C 12.1 °C 1023.2 hPa WNW 7.4 km/h 17.7 km/h 71.8% 0 mm 355 W/m2
15:09 16.8 °C 12.1 °C 1023.2 hPa WNW 9 km/h 20.9 km/h 71.2% 0 mm 543 W/m2
15:14 16.8 °C 12.1 °C 1023.2 hPa WNW 10.1 km/h 22.5 km/h 71.4% 0 mm 415 W/m2
15:19 16.9 °C 11.9 °C 1023.2 hPa West 13.5 km/h 22.5 km/h 70% 0 mm 533 W/m2
15:24 16.7 °C 11.7 °C 1023.2 hPa WNW 11.9 km/h 20.9 km/h 70% 0 mm 499 W/m2
15:29 16.8 °C 11.8 °C 1022.9 hPa West 14.2 km/h 20.9 km/h 70% 0 mm 434 W/m2
15:34 16.8 °C 12 °C 1022.9 hPa WNW 10.1 km/h 17.7 km/h 70.8% 0 mm 445 W/m2
15:39 16.8 °C 12 °C 1022.9 hPa WNW 12.1 km/h 19.3 km/h 71.2% 0 mm 381 W/m2
15:44 16.5 °C 11.8 °C 1022.6 hPa WNW 15.8 km/h 24.1 km/h 71.6% 0 mm 234 W/m2
15:49 16.3 °C 11.7 °C 1022.6 hPa West 11.3 km/h 24.1 km/h 72% 0 mm 135 W/m2
15:54 16.3 °C 11.7 °C 1022.6 hPa West 9.3 km/h 16.1 km/h 72% 0 mm 151 W/m2
15:59 16.3 °C 11.8 °C 1022.6 hPa West 7.4 km/h 17.7 km/h 72.8% 0 mm 200 W/m2
16:04 16.3 °C 11.8 °C 1022.6 hPa West 8.7 km/h 17.7 km/h 73% 0 mm 193 W/m2
16:09 16.1 °C 11.7 °C 1022.6 hPa WNW 9.8 km/h 17.7 km/h 73% 0 mm 213 W/m2
16:13 16 °C 11.7 °C 1022.6 hPa WNW 7.6 km/h 17.7 km/h 73.8% 0 mm 209 W/m2
16:19 16 °C 11.7 °C 1022.6 hPa WNW 8.2 km/h 19.3 km/h 73.6% 0 mm 156 W/m2
16:24 15.8 °C 11.8 °C 1022.6 hPa West 9.3 km/h 16.1 km/h 74% 0 mm 146 W/m2
16:29 15.8 °C 11.7 °C 1022.2 hPa West 10.6 km/h 16.1 km/h 74% 0 mm 118 W/m2
16:34 15.7 °C 11.6 °C 1022.2 hPa West 9.5 km/h 19.3 km/h 74% 0 mm 109 W/m2
16:39 15.6 °C 11.5 °C 1022.2 hPa West 6.8 km/h 14.5 km/h 74% 0 mm 109 W/m2
16:44 15.7 °C 11.6 °C 1022.2 hPa WNW 11.9 km/h 16.1 km/h 74% 0 mm 91 W/m2
16:49 15.5 °C 11.6 °C 1022.2 hPa West 7.7 km/h 14.5 km/h 74.8% 0 mm 76 W/m2
16:54 15.4 °C 11.5 °C 1022.2 hPa WNW 9.3 km/h 17.7 km/h 75% 0 mm 81 W/m2
16:59 15.3 °C 11.4 °C 1022.2 hPa WNW 9.2 km/h 20.9 km/h 75% 0 mm 67 W/m2
17:04 15.3 °C 11.3 °C 1022.2 hPa WNW 8.7 km/h 20.9 km/h 75% 0 mm 56 W/m2
17:09 15.2 °C 11.3 °C 1022.2 hPa West 10 km/h 22.5 km/h 75% 0 mm 58 W/m2
17:14 15.1 °C 11.2 °C 1021.9 hPa WNW 11.9 km/h 17.7 km/h 75% 0 mm 56 W/m2
17:19 15.1 °C 11.3 °C 1021.9 hPa West 7.9 km/h 16.1 km/h 75.4% 0 mm 60 W/m2
17:24 15.1 °C 11.4 °C 1021.9 hPa West 7.6 km/h 12.9 km/h 76% 0 mm 60 W/m2
17:29 15.1 °C 11.4 °C 1021.9 hPa West 3.9 km/h 12.9 km/h 76% 0 mm 60 W/m2
17:34 15.1 °C 11.4 °C 1021.9 hPa West 4.2 km/h 9.7 km/h 76% 0 mm 49 W/m2
17:39 15.1 °C 11.4 °C 1021.9 hPa West 4.7 km/h 11.3 km/h 76.4% 0 mm 35 W/m2
17:44 15 °C 11.5 °C 1021.9 hPa West 5.6 km/h 9.7 km/h 76.8% 0 mm 26 W/m2
17:49 14.9 °C 11.4 °C 1021.9 hPa West 6.4 km/h 11.3 km/h 77% 0 mm 23 W/m2
17:54 14.9 °C 11.4 °C 1021.9 hPa West 4 km/h 9.7 km/h 77% 0 mm 16 W/m2
17:59 14.8 °C 11.4 °C 1021.9 hPa West 3.9 km/h 8 km/h 77.6% 0 mm 11 W/m2
18:04 14.8 °C 11.5 °C 1021.9 hPa West 3.4 km/h 9.7 km/h 78% 0 mm 9 W/m2
18:09 14.8 °C 11.5 °C 1021.6 hPa West 3.2 km/h 6.4 km/h 78% 0 mm 5 W/m2
18:14 14.8 °C 11.5 °C 1021.6 hPa West 5.3 km/h 9.7 km/h 78% 0 mm 0 W/m2
18:18 14.7 °C 11.4 °C 1021.6 hPa West 3.9 km/h 8 km/h 78% 0 mm 0 W/m2
18:24 14.7 °C 11.4 °C 1021.6 hPa West 4.5 km/h 8 km/h 78.2% 0 mm 0 W/m2
18:29 14.7 °C 11.6 °C 1021.6 hPa West 2.3 km/h 8 km/h 79% 0 mm 0 W/m2
18:34 14.6 °C 11.5 °C 1021.6 hPa West 3.1 km/h 9.7 km/h 79% 0 mm 0 W/m2
18:39 14.6 °C 11.5 °C 1021.6 hPa West 4 km/h 9.7 km/h 79% 0 mm 0 W/m2
18:44 14.6 °C 11.7 °C 1021.6 hPa West 0.3 km/h 4.8 km/h 79.8% 0 mm 0 W/m2
18:49 14.6 °C 11.7 °C 1021.6 hPa West 1.3 km/h 6.4 km/h 80% 0 mm 0 W/m2
18:54 14.5 °C 11.6 °C 1021.6 hPa West 0.3 km/h 4.8 km/h 80% 0 mm 0 W/m2
18:59 14.4 °C 11.6 °C 1021.6 hPa Calm     80.2% 0 mm 0 W/m2
19:04 14.4 °C 11.7 °C 1021.6 hPa West 1.4 km/h 4.8 km/h 81% 0 mm 0 W/m2
19:09 14.3 °C 11.7 °C 1021.6 hPa West 3.4 km/h 6.4 km/h 81.4% 0 mm 0 W/m2
19:13 14.3 °C 11.8 °C 1021.2 hPa West 0.3 km/h 4.8 km/h 82% 0 mm 0 W/m2
19:19 14.3 °C 11.8 °C 1021.6 hPa West 1 km/h 3.2 km/h 82% 0 mm 0 W/m2
19:24 14.3 °C 11.8 °C 1021.2 hPa West 1.4 km/h 6.4 km/h 82.4% 0 mm 0 W/m2
19:29 14.3 °C 11.9 °C 1021.2 hPa West 2.6 km/h 8 km/h 83% 0 mm 0 W/m2
19:34 14.2 °C 11.8 °C 1021.2 hPa West 2.6 km/h 8 km/h 83% 0 mm 0 W/m2
19:39 14.2 °C 12 °C 1021.2 hPa West 2.9 km/h 6.4 km/h 84% 0 mm 0 W/m2
19:44 14.2 °C 12 °C 1021.2 hPa West 3.4 km/h 8 km/h 84% 0 mm 0 W/m2
19:49 14.1 °C 11.9 °C 1021.2 hPa West 3.7 km/h 11.3 km/h 84% 0 mm 0 W/m2
19:54 14.1 °C 11.9 °C 1021.2 hPa West 2.1 km/h 4.8 km/h 84.2% 0 mm 0 W/m2
19:59 14.1 °C 12.1 °C 1021.2 hPa West 3.7 km/h 8 km/h 85% 0 mm 0 W/m2
20:04 14 °C 12 °C 1021.2 hPa West 3.4 km/h 8 km/h 85% 0 mm 0 W/m2
20:09 14 °C 12 °C 1021.2 hPa West 3.4 km/h 8 km/h 85% 0 mm 0 W/m2
20:14 13.9 °C 12.1 °C 1020.9 hPa West 2.7 km/h 8 km/h 85.8% 0 mm 0 W/m2
20:19 13.9 °C 12.1 °C 1020.9 hPa West 3.4 km/h 9.7 km/h 86% 0 mm 0 W/m2
20:24 13.8 °C 12 °C 1020.9 hPa West 1.9 km/h 6.4 km/h 86% 0 mm 0 W/m2
20:29 13.8 °C 12 °C 1020.9 hPa West 2.3 km/h 4.8 km/h 86% 0 mm 0 W/m2
20:34 13.8 °C 12 °C 1020.9 hPa West 2.1 km/h 6.4 km/h 86% 0 mm 0 W/m2
20:39 13.8 °C 12 °C 1020.9 hPa West 3.9 km/h 8 km/h 86% 0 mm 0 W/m2
20:44 13.8 °C 12 °C 1020.5 hPa West 2.9 km/h 8 km/h 86% 0 mm 0 W/m2
20:49 13.7 °C 12.1 °C 1020.9 hPa West 2.4 km/h 8 km/h 86.6% 0 mm 0 W/m2
20:54 13.7 °C 12.1 °C 1020.9 hPa West 2.4 km/h 4.8 km/h 87% 0 mm 0 W/m2
20:59 13.6 °C 12 °C 1020.9 hPa West 2.1 km/h 6.4 km/h 87% 0 mm 0 W/m2
21:04 13.6 °C 11.9 °C 1020.9 hPa West 1.6 km/h 4.8 km/h 87% 0 mm 0 W/m2
21:09 13.4 °C 11.8 °C 1020.9 hPa West 2.9 km/h 4.8 km/h 87% 0 mm 0 W/m2
21:14 13.4 °C 11.9 °C 1020.9 hPa West 1.4 km/h 4.8 km/h 87.6% 0 mm 0 W/m2
21:19 13.4 °C 11.9 °C 1020.5 hPa West 2.3 km/h 6.4 km/h 88% 0 mm 0 W/m2
21:24 13.5 °C 12 °C 1020.9 hPa West 4.5 km/h 6.4 km/h 88% 0 mm 0 W/m2
21:29 13.5 °C 12 °C 1020.5 hPa West 4.3 km/h 11.3 km/h 88% 0 mm 0 W/m2
21:34 13.5 °C 12.1 °C 1020.5 hPa West 3.9 km/h 11.3 km/h 88.2% 0 mm 0 W/m2
21:39 13.6 °C 12.3 °C 1020.5 hPa West 2.7 km/h 8 km/h 89% 0 mm 0 W/m2
21:44 13.6 °C 12.3 °C 1020.5 hPa West 4.3 km/h 8 km/h 89% 0 mm 0 W/m2
21:49 13.6 °C 12.3 °C 1020.5 hPa West 2.9 km/h 6.4 km/h 89% 0 mm 0 W/m2
21:54 13.4 °C 12.2 °C 1020.5 hPa West 3.2 km/h 8 km/h 89% 0 mm 0 W/m2
21:59 13.4 °C 12.1 °C 1020.5 hPa West 1.9 km/h 8 km/h 89% 0 mm 0 W/m2
22:04 13.3 °C 12 °C 1020.5 hPa West 3.4 km/h 8 km/h 89% 0 mm 0 W/m2
22:09 13.2 °C 11.9 °C 1020.5 hPa West 2.7 km/h 6.4 km/h 89% 0 mm 0 W/m2
22:14 13.2 °C 11.9 °C 1020.5 hPa West 1.1 km/h 4.8 km/h 89% 0 mm 0 W/m2
22:19 13.2 °C 11.8 °C 1020.5 hPa West 3.2 km/h 6.4 km/h 89% 0 mm 0 W/m2
22:24 13.1 °C 11.8 °C 1020.5 hPa West 3.2 km/h 6.4 km/h 89% 0 mm 0 W/m2
22:29 13 °C 11.7 °C 1020.5 hPa West 2.6 km/h 6.4 km/h 89% 0 mm 0 W/m2
22:34 12.9 °C 11.7 °C 1020.5 hPa West 6.3 km/h 12.9 km/h 89.4% 0 mm 0 W/m2
22:39 12.9 °C 11.7 °C 1020.5 hPa West 2.7 km/h 9.7 km/h 89.8% 0 mm 0 W/m2
22:44 12.9 °C 11.6 °C 1020.5 hPa West 6 km/h 14.5 km/h 89% 0 mm 0 W/m2
22:49 12.9 °C 11.6 °C 1020.5 hPa West 5.3 km/h 12.9 km/h 89% 0 mm 0 W/m2
22:54 12.9 °C 11.6 °C 1020.5 hPa West 6.1 km/h 14.5 km/h 89% 0 mm 0 W/m2
22:59 13 °C 11.7 °C 1020.2 hPa West 6.6 km/h 12.9 km/h 89% 0 mm 0 W/m2
23:04 13.1 °C 11.8 °C 1020.2 hPa West 5.8 km/h 9.7 km/h 89% 0 mm 0 W/m2
23:09 13.1 °C 11.6 °C 1020.2 hPa West 5.6 km/h 12.9 km/h 88% 0 mm 0 W/m2
23:14 13.1 °C 11.6 °C 1019.9 hPa West 4.7 km/h 9.7 km/h 88% 0 mm 0 W/m2
23:19 13 °C 11.6 °C 1019.9 hPa West 5 km/h 11.3 km/h 88% 0 mm 0 W/m2
23:24 13 °C 11.6 °C 1019.9 hPa West 6 km/h 11.3 km/h 88% 0 mm 0 W/m2
23:29 13 °C 11.6 °C 1019.9 hPa West 6.3 km/h 12.9 km/h 88% 0 mm 0 W/m2
23:34 13.1 °C 11.6 °C 1019.9 hPa West 6.4 km/h 12.9 km/h 88% 0 mm 0 W/m2
23:39 13 °C 11.6 °C 1019.9 hPa West 4.7 km/h 8 km/h 88% 0 mm 0 W/m2
23:44 13 °C 11.6 °C 1019.9 hPa West 2.7 km/h 8 km/h 88% 0 mm 0 W/m2
23:49 13 °C 11.6 °C 1019.9 hPa West 4.3 km/h 8 km/h 88% 0 mm 0 W/m2
23:54 13 °C 11.6 °C 1019.9 hPa West 3.4 km/h 8 km/h 88% 0 mm 0 W/m2
23:59 13 °C 11.6 °C 1019.9 hPa West 3.7 km/h 6.4 km/h 88% 0 mm 0 W/m2
Bath Spa Weather
Compliments of Weather Underground - 2 mb